JLY7001 SBGR-SBGO
Flight info
| Callsign | JLY7001 |
|---|---|
| Flight time | 1h 40m |
| Altitude | 37000 |
| Route | ISMOB DCT CORVO |
| Aircraft | B738/M-SDE2E3FGHIRWXY/LB1 |
Departure
| Time | 2026-05-05 15:46 |
|---|---|
| Airport | São Paulo/Guarulhos–Governor André Franco Montoro International Airport (SBGR) |
Arrival
| Time | 2026-05-05 17:27 |
|---|---|
| Airport | Santa Genoveva International Airport (SBGO) |
| Time | Latitude | Longitude | Altitude | Speed | Heading |
|---|---|---|---|---|---|
| 2026-05-05 15:19 | -23.42844 | -46.48062 | 2456 ft | 0 kts | 90° |
| 2026-05-05 15:35 | -23.42844 | -46.48071 | 2457 ft | 3 kts | 89° |
| 2026-05-05 15:36 | -23.42845 | -46.48092 | 2452 ft | 3 kts | 86° |
| 2026-05-05 15:36 | -23.42846 | -46.48113 | 2455 ft | 2 kts | 88° |
| 2026-05-05 15:36 | -23.42846 | -46.48132 | 2457 ft | 3 kts | 114° |
| 2026-05-05 15:36 | -23.42835 | -46.48147 | 2456 ft | 3 kts | 154° |
| 2026-05-05 15:37 | -23.42818 | -46.48153 | 2459 ft | 2 kts | 174° |
| 2026-05-05 15:37 | -23.42816 | -46.48153 | 2459 ft | 0 kts | 174° |
| 2026-05-05 15:40 | -23.42817 | -46.48153 | 2449 ft | 2 kts | 174° |
| 2026-05-05 15:40 | -23.42869 | -46.48148 | 2459 ft | 10 kts | 174° |
| 2026-05-05 15:40 | -23.42943 | -46.48140 | 2459 ft | 12 kts | 174° |
| 2026-05-05 15:41 | -23.43028 | -46.48132 | 2455 ft | 12 kts | 175° |
| 2026-05-05 15:41 | -23.43107 | -46.48141 | 2459 ft | 12 kts | 218° |
| 2026-05-05 15:41 | -23.43139 | -46.48220 | 2456 ft | 11 kts | 255° |
| 2026-05-05 15:41 | -23.43160 | -46.48302 | 2460 ft | 11 kts | 253° |
| 2026-05-05 15:42 | -23.43187 | -46.48376 | 2459 ft | 6 kts | 227° |
| 2026-05-05 15:42 | -23.43227 | -46.48386 | 2462 ft | 6 kts | 168° |
| 2026-05-05 15:42 | -23.43269 | -46.48372 | 2458 ft | 6 kts | 163° |
| 2026-05-05 15:42 | -23.43309 | -46.48361 | 2457 ft | 6 kts | 167° |
| 2026-05-05 15:43 | -23.43316 | -46.48359 | 2458 ft | 0 kts | 167° |
| 2026-05-05 15:43 | -23.43337 | -46.48354 | 2459 ft | 9 kts | 167° |
| 2026-05-05 15:44 | -23.43412 | -46.48325 | 2458 ft | 13 kts | 139° |
| 2026-05-05 15:44 | -23.43412 | -46.48268 | 2459 ft | 0 kts | 71° |
| 2026-05-05 15:46 | -23.43411 | -46.48266 | 2459 ft | 4 kts | 71° |
| 2026-05-05 15:46 | -23.43328 | -46.47960 | 2454 ft | 84 kts | 74° |
| 2026-05-05 15:46 | -23.43083 | -46.47067 | 2456 ft | 157 kts | 71° |
| 2026-05-05 15:46 | -23.42745 | -46.45839 | 3147 ft | 172 kts | 73° |
| 2026-05-05 15:47 | -23.42425 | -46.44548 | 4041 ft | 184 kts | 72° |
| 2026-05-05 15:47 | -23.42035 | -46.43670 | 4381 ft | 202 kts | 50° |
| 2026-05-05 15:47 | -23.40448 | -46.42294 | 4694 ft | 239 kts | 35° |
| 2026-05-05 15:47 | -23.39071 | -46.41180 | 5213 ft | 252 kts | 37° |
| 2026-05-05 15:48 | -23.37666 | -46.40002 | 5944 ft | 258 kts | 36° |
| 2026-05-05 15:48 | -23.36269 | -46.38682 | 6548 ft | 275 kts | 44° |
| 2026-05-05 15:48 | -23.34917 | -46.37166 | 7309 ft | 282 kts | 46° |
| 2026-05-05 15:48 | -23.33566 | -46.35621 | 8103 ft | 288 kts | 47° |
| 2026-05-05 15:49 | -23.32172 | -46.34043 | 8978 ft | 290 kts | 46° |
| 2026-05-05 15:49 | -23.30757 | -46.32460 | 9901 ft | 293 kts | 46° |
| 2026-05-05 15:49 | -23.29317 | -46.30856 | 10647 ft | 301 kts | 46° |
| 2026-05-05 15:49 | -23.27791 | -46.29160 | 10898 ft | 326 kts | 46° |
| 2026-05-05 15:50 | -23.26165 | -46.27355 | 11435 ft | 338 kts | 46° |
| 2026-05-05 15:50 | -23.24510 | -46.25520 | 12207 ft | 342 kts | 46° |
| 2026-05-05 15:50 | -23.22840 | -46.23669 | 13052 ft | 343 kts | 46° |
| 2026-05-05 15:50 | -23.21162 | -46.21809 | 13875 ft | 346 kts | 46° |
| 2026-05-05 15:51 | -23.19467 | -46.19931 | 14573 ft | 350 kts | 46° |
| 2026-05-05 15:51 | -23.17745 | -46.18024 | 15187 ft | 356 kts | 46° |
| 2026-05-05 15:51 | -23.15997 | -46.16088 | 15797 ft | 362 kts | 46° |
| 2026-05-05 15:51 | -23.14232 | -46.14159 | 16421 ft | 367 kts | 43° |
| 2026-05-05 15:52 | -23.12062 | -46.12684 | 17009 ft | 374 kts | 20° |
| 2026-05-05 15:52 | -23.09495 | -46.12219 | 17646 ft | 378 kts | 358° |
| 2026-05-05 15:52 | -23.06912 | -46.12813 | 18237 ft | 383 kts | 336° |
| 2026-05-05 15:52 | -23.04666 | -46.14370 | 18765 ft | 385 kts | 316° |
| 2026-05-05 15:53 | -23.02731 | -46.16391 | 19329 ft | 388 kts | 314° |
| 2026-05-05 15:53 | -23.00819 | -46.18473 | 19884 ft | 391 kts | 313° |
| 2026-05-05 15:53 | -22.98892 | -46.20570 | 20461 ft | 394 kts | 314° |
| 2026-05-05 15:53 | -22.96932 | -46.22676 | 21009 ft | 397 kts | 314° |
| 2026-05-05 15:54 | -22.94950 | -46.24780 | 21551 ft | 401 kts | 314° |
| 2026-05-05 15:54 | -22.92943 | -46.26897 | 22081 ft | 405 kts | 314° |
| 2026-05-05 15:54 | -22.90938 | -46.29008 | 22618 ft | 407 kts | 313° |
| 2026-05-05 15:54 | -22.89188 | -46.31409 | 23113 ft | 407 kts | 295° |
| 2026-05-05 15:55 | -22.87961 | -46.34190 | 23686 ft | 408 kts | 293° |
| 2026-05-05 15:55 | -22.86759 | -46.36992 | 24131 ft | 411 kts | 292° |
| 2026-05-05 15:55 | -22.85543 | -46.39808 | 24588 ft | 413 kts | 293° |
| 2026-05-05 15:55 | -22.84313 | -46.42623 | 25083 ft | 414 kts | 293° |
| 2026-05-05 15:56 | -22.83067 | -46.45450 | 25551 ft | 416 kts | 293° |
| 2026-05-05 15:56 | -22.81810 | -46.48282 | 26013 ft | 418 kts | 293° |
| 2026-05-05 15:56 | -22.80543 | -46.51124 | 26433 ft | 420 kts | 292° |
| 2026-05-05 15:56 | -22.79281 | -46.53950 | 26854 ft | 423 kts | 292° |
| 2026-05-05 15:57 | -22.77995 | -46.56826 | 27294 ft | 425 kts | 292° |
| 2026-05-05 15:57 | -22.76703 | -46.59715 | 27726 ft | 427 kts | 292° |
| 2026-05-05 15:57 | -22.75403 | -46.62620 | 28157 ft | 428 kts | 292° |
| 2026-05-05 15:57 | -22.74100 | -46.65531 | 28551 ft | 431 kts | 292° |
| 2026-05-05 15:58 | -22.72792 | -46.68453 | 28947 ft | 433 kts | 292° |
| 2026-05-05 15:58 | -22.71473 | -46.71395 | 29342 ft | 435 kts | 292° |
| 2026-05-05 15:58 | -22.70147 | -46.74352 | 29737 ft | 437 kts | 292° |
| 2026-05-05 15:58 | -22.68817 | -46.77318 | 30109 ft | 439 kts | 292° |
| 2026-05-05 15:59 | -22.67478 | -46.80300 | 30433 ft | 441 kts | 291° |
| 2026-05-05 15:59 | -22.66130 | -46.83300 | 30715 ft | 444 kts | 291° |
| 2026-05-05 15:59 | -22.64770 | -46.86313 | 31038 ft | 445 kts | 291° |
| 2026-05-05 15:59 | -22.63392 | -46.89316 | 31373 ft | 447 kts | 295° |
| 2026-05-05 16:00 | -22.61478 | -46.91967 | 31647 ft | 460 kts | 314° |
| 2026-05-05 16:00 | -22.58844 | -46.93960 | 32067 ft | 467 kts | 330° |
| 2026-05-05 16:00 | -22.55783 | -46.95175 | 32571 ft | 468 kts | 339° |
| 2026-05-05 16:00 | -22.52659 | -46.96170 | 32998 ft | 468 kts | 340° |
| 2026-05-05 16:01 | -22.49526 | -46.97124 | 33324 ft | 468 kts | 340° |
| 2026-05-05 16:01 | -22.46386 | -46.98079 | 33670 ft | 467 kts | 340° |
| 2026-05-05 16:01 | -22.43268 | -46.99042 | 34089 ft | 465 kts | 339° |
| 2026-05-05 16:01 | -22.40165 | -47.00018 | 34444 ft | 463 kts | 339° |
| 2026-05-05 16:02 | -22.37079 | -47.01003 | 34714 ft | 463 kts | 338° |
| 2026-05-05 16:02 | -22.33986 | -47.01999 | 34936 ft | 465 kts | 338° |
| 2026-05-05 16:02 | -22.30883 | -47.03002 | 35203 ft | 464 kts | 338° |
| 2026-05-05 16:02 | -22.27786 | -47.04002 | 35500 ft | 463 kts | 338° |
| 2026-05-05 16:03 | -22.24695 | -47.04999 | 35764 ft | 464 kts | 338° |
| 2026-05-05 16:03 | -22.21601 | -47.05997 | 35988 ft | 464 kts | 338° |
| 2026-05-05 16:03 | -22.18503 | -47.06995 | 36237 ft | 465 kts | 338° |
| 2026-05-05 16:03 | -22.15404 | -47.07992 | 36513 ft | 464 kts | 337° |
| 2026-05-05 16:04 | -22.12307 | -47.08987 | 36795 ft | 464 kts | 337° |
| 2026-05-05 16:04 | -22.09259 | -47.09966 | 37041 ft | 464 kts | 337° |
| 2026-05-05 16:04 | -22.06157 | -47.10963 | 37210 ft | 466 kts | 337° |
| 2026-05-05 16:05 | -21.99900 | -47.12974 | 37211 ft | 470 kts | 337° |
| 2026-05-05 16:05 | -21.93645 | -47.14976 | 37206 ft | 465 kts | 337° |
| 2026-05-05 16:06 | -21.87512 | -47.16940 | 37209 ft | 462 kts | 337° |
| 2026-05-05 16:06 | -21.81353 | -47.18914 | 37192 ft | 461 kts | 336° |
| 2026-05-05 16:07 | -21.75206 | -47.20867 | 37167 ft | 461 kts | 337° |
| 2026-05-05 16:07 | -21.69048 | -47.22787 | 37178 ft | 461 kts | 337° |
| 2026-05-05 16:08 | -21.62874 | -47.24708 | 37170 ft | 463 kts | 337° |
| 2026-05-05 16:08 | -21.56673 | -47.26639 | 37178 ft | 465 kts | 337° |
| 2026-05-05 16:09 | -21.50455 | -47.28577 | 37166 ft | 467 kts | 337° |
| 2026-05-05 16:09 | -21.44212 | -47.30521 | 37171 ft | 468 kts | 337° |
| 2026-05-05 16:10 | -21.37982 | -47.32459 | 37160 ft | 469 kts | 337° |
| 2026-05-05 16:10 | -21.31705 | -47.34409 | 37165 ft | 470 kts | 337° |
| 2026-05-05 16:11 | -21.25417 | -47.36361 | 37164 ft | 470 kts | 337° |
| 2026-05-05 16:12 | -21.12884 | -47.40247 | 37156 ft | 468 kts | 337° |
| 2026-05-05 16:13 | -20.98293 | -47.44764 | 37167 ft | 468 kts | 337° |
| 2026-05-05 16:13 | -20.92023 | -47.46702 | 37166 ft | 469 kts | 337° |
| 2026-05-05 16:14 | -20.79523 | -47.50561 | 37171 ft | 469 kts | 337° |
| 2026-05-05 16:15 | -20.66981 | -47.54425 | 37157 ft | 469 kts | 337° |
| 2026-05-05 16:16 | -20.54426 | -47.58287 | 37172 ft | 469 kts | 337° |
| 2026-05-05 16:17 | -20.45002 | -47.61182 | 37149 ft | 470 kts | 336° |
| 2026-05-05 16:18 | -20.35609 | -47.64063 | 37159 ft | 471 kts | 336° |
| 2026-05-05 16:19 | -20.26152 | -47.66961 | 37135 ft | 471 kts | 336° |
| 2026-05-05 16:19 | -20.16692 | -47.69855 | 37151 ft | 472 kts | 336° |
| 2026-05-05 16:20 | -20.04067 | -47.73713 | 37139 ft | 472 kts | 336° |
| 2026-05-05 16:22 | -19.88279 | -47.78527 | 37151 ft | 472 kts | 336° |
| 2026-05-05 16:23 | -19.75678 | -47.82363 | 37226 ft | 472 kts | 336° |
| 2026-05-05 16:23 | -19.66188 | -47.85248 | 37160 ft | 473 kts | 336° |
| 2026-05-05 16:24 | -19.59862 | -47.87169 | 37159 ft | 473 kts | 336° |
| 2026-05-05 16:25 | -19.50356 | -47.90052 | 37154 ft | 474 kts | 336° |
| 2026-05-05 16:25 | -19.40850 | -47.92932 | 37158 ft | 474 kts | 336° |
| 2026-05-05 16:26 | -19.28157 | -47.96772 | 37155 ft | 474 kts | 336° |
| 2026-05-05 16:27 | -19.21846 | -47.98679 | 37158 ft | 474 kts | 336° |
| 2026-05-05 16:27 | -19.15505 | -48.00593 | 37159 ft | 474 kts | 336° |
| 2026-05-05 16:28 | -19.09146 | -48.02512 | 37142 ft | 475 kts | 336° |
| 2026-05-05 16:28 | -19.02780 | -48.04431 | 37157 ft | 475 kts | 336° |
| 2026-05-05 16:29 | -18.96461 | -48.06335 | 37233 ft | 476 kts | 336° |
| 2026-05-05 16:29 | -18.90087 | -48.08270 | 37250 ft | 475 kts | 335° |
| 2026-05-05 16:30 | -18.83857 | -48.10547 | 37250 ft | 472 kts | 332° |
| 2026-05-05 16:30 | -18.77698 | -48.12971 | 37254 ft | 473 kts | 332° |
| 2026-05-05 16:31 | -18.71507 | -48.15376 | 37228 ft | 475 kts | 332° |
| 2026-05-05 16:31 | -18.65284 | -48.17754 | 37183 ft | 476 kts | 332° |
| 2026-05-05 16:32 | -18.59045 | -48.20123 | 37169 ft | 476 kts | 332° |
| 2026-05-05 16:32 | -18.52811 | -48.22489 | 37140 ft | 476 kts | 332° |
| 2026-05-05 16:33 | -18.46578 | -48.24857 | 37132 ft | 476 kts | 332° |
| 2026-05-05 16:33 | -18.43456 | -48.26042 | 36944 ft | 478 kts | 332° |
| 2026-05-05 16:33 | -18.40328 | -48.27229 | 36616 ft | 474 kts | 332° |
| 2026-05-05 16:34 | -18.37238 | -48.28398 | 36228 ft | 469 kts | 332° |
| 2026-05-05 16:34 | -18.34182 | -48.29555 | 35849 ft | 465 kts | 332° |
| 2026-05-05 16:34 | -18.31174 | -48.30696 | 35461 ft | 461 kts | 332° |
| 2026-05-05 16:34 | -18.28163 | -48.31838 | 35074 ft | 458 kts | 332° |
| 2026-05-05 16:35 | -18.25174 | -48.32972 | 34684 ft | 455 kts | 333° |
| 2026-05-05 16:35 | -18.22203 | -48.34097 | 34289 ft | 453 kts | 333° |
| 2026-05-05 16:35 | -18.19243 | -48.35218 | 33855 ft | 451 kts | 333° |
| 2026-05-05 16:35 | -18.16301 | -48.36333 | 33465 ft | 447 kts | 333° |
| 2026-05-05 16:36 | -18.13380 | -48.37439 | 33065 ft | 444 kts | 333° |
| 2026-05-05 16:36 | -18.10484 | -48.38537 | 32680 ft | 441 kts | 333° |
| 2026-05-05 16:36 | -18.07613 | -48.39625 | 32299 ft | 437 kts | 333° |
| 2026-05-05 16:36 | -18.04762 | -48.40705 | 31931 ft | 434 kts | 334° |
| 2026-05-05 16:37 | -18.01930 | -48.41778 | 31553 ft | 431 kts | 334° |
| 2026-05-05 16:37 | -17.99115 | -48.42845 | 31188 ft | 428 kts | 334° |
| 2026-05-05 16:37 | -17.96323 | -48.43902 | 30812 ft | 425 kts | 334° |
| 2026-05-05 16:37 | -17.93548 | -48.44953 | 30454 ft | 422 kts | 335° |
| 2026-05-05 16:38 | -17.90795 | -48.45995 | 30076 ft | 420 kts | 335° |
| 2026-05-05 16:38 | -17.88050 | -48.47033 | 29648 ft | 417 kts | 335° |
| 2026-05-05 16:38 | -17.85335 | -48.48059 | 29236 ft | 413 kts | 335° |
| 2026-05-05 16:38 | -17.82679 | -48.49063 | 28868 ft | 409 kts | 335° |
| 2026-05-05 16:39 | -17.79979 | -48.50084 | 28471 ft | 406 kts | 335° |
| 2026-05-05 16:39 | -17.77371 | -48.51070 | 28102 ft | 402 kts | 336° |
| 2026-05-05 16:39 | -17.74743 | -48.52062 | 27721 ft | 399 kts | 336° |
| 2026-05-05 16:39 | -17.72141 | -48.53049 | 27351 ft | 395 kts | 334° |
| 2026-05-05 16:40 | -17.69694 | -48.54278 | 27097 ft | 384 kts | 324° |
| 2026-05-05 16:40 | -17.67440 | -48.55728 | 26807 ft | 379 kts | 323° |
| 2026-05-05 16:40 | -17.65216 | -48.57191 | 26459 ft | 376 kts | 323° |
| 2026-05-05 16:40 | -17.63002 | -48.58647 | 26114 ft | 373 kts | 324° |
| 2026-05-05 16:41 | -17.60802 | -48.60084 | 25759 ft | 372 kts | 324° |
| 2026-05-05 16:41 | -17.58611 | -48.61506 | 25403 ft | 370 kts | 324° |
| 2026-05-05 16:41 | -17.56420 | -48.62922 | 25034 ft | 369 kts | 325° |
| 2026-05-05 16:41 | -17.54229 | -48.64334 | 24673 ft | 368 kts | 325° |
| 2026-05-05 16:42 | -17.52072 | -48.65724 | 24299 ft | 368 kts | 325° |
| 2026-05-05 16:42 | -17.49892 | -48.67126 | 23928 ft | 368 kts | 326° |
| 2026-05-05 16:42 | -17.47714 | -48.68527 | 23547 ft | 367 kts | 326° |
| 2026-05-05 16:42 | -17.45536 | -48.69927 | 23144 ft | 365 kts | 326° |
| 2026-05-05 16:43 | -17.43379 | -48.71312 | 22770 ft | 363 kts | 326° |
| 2026-05-05 16:43 | -17.41228 | -48.72693 | 22393 ft | 361 kts | 326° |
| 2026-05-05 16:43 | -17.39092 | -48.74065 | 22030 ft | 359 kts | 326° |
| 2026-05-05 16:43 | -17.36970 | -48.75428 | 21673 ft | 356 kts | 326° |
| 2026-05-05 16:44 | -17.34865 | -48.76779 | 21329 ft | 354 kts | 326° |
| 2026-05-05 16:44 | -17.32769 | -48.78125 | 20974 ft | 352 kts | 326° |
| 2026-05-05 16:44 | -17.30686 | -48.79462 | 20630 ft | 351 kts | 326° |
| 2026-05-05 16:44 | -17.28605 | -48.80797 | 20280 ft | 349 kts | 326° |
| 2026-05-05 16:45 | -17.26541 | -48.82122 | 19928 ft | 348 kts | 326° |
| 2026-05-05 16:45 | -17.24503 | -48.83429 | 19578 ft | 347 kts | 326° |
| 2026-05-05 16:45 | -17.22439 | -48.84753 | 19216 ft | 347 kts | 326° |
| 2026-05-05 16:45 | -17.20383 | -48.86071 | 18873 ft | 346 kts | 326° |
| 2026-05-05 16:46 | -17.18324 | -48.87390 | 18513 ft | 346 kts | 327° |
| 2026-05-05 16:46 | -17.16268 | -48.88708 | 18126 ft | 346 kts | 326° |
| 2026-05-05 16:46 | -17.14219 | -48.90020 | 17753 ft | 344 kts | 327° |
| 2026-05-05 16:46 | -17.12184 | -48.91323 | 17396 ft | 342 kts | 326° |
| 2026-05-05 16:47 | -17.10156 | -48.92621 | 17049 ft | 340 kts | 327° |
| 2026-05-05 16:47 | -17.08164 | -48.93897 | 16704 ft | 339 kts | 327° |
| 2026-05-05 16:47 | -17.06161 | -48.95179 | 16353 ft | 337 kts | 327° |
| 2026-05-05 16:47 | -17.04163 | -48.96458 | 16015 ft | 336 kts | 327° |
| 2026-05-05 16:48 | -17.02172 | -48.97731 | 15679 ft | 334 kts | 327° |
| 2026-05-05 16:48 | -17.00193 | -48.98997 | 15340 ft | 332 kts | 328° |
| 2026-05-05 16:48 | -16.98226 | -49.00253 | 14997 ft | 331 kts | 328° |
| 2026-05-05 16:48 | -16.96255 | -49.01511 | 14635 ft | 331 kts | 328° |
| 2026-05-05 16:49 | -16.94293 | -49.02763 | 14312 ft | 330 kts | 328° |
| 2026-05-05 16:49 | -16.92339 | -49.04010 | 13954 ft | 330 kts | 329° |
| 2026-05-05 16:49 | -16.90384 | -49.05258 | 13578 ft | 329 kts | 329° |
| 2026-05-05 16:49 | -16.88434 | -49.06503 | 13232 ft | 327 kts | 329° |
| 2026-05-05 16:50 | -16.86501 | -49.07736 | 12909 ft | 325 kts | 330° |
| 2026-05-05 16:50 | -16.84596 | -49.08950 | 12591 ft | 323 kts | 329° |
| 2026-05-05 16:50 | -16.82677 | -49.10173 | 12266 ft | 322 kts | 329° |
| 2026-05-05 16:50 | -16.80865 | -49.11535 | 11911 ft | 323 kts | 315° |
| 2026-05-05 16:51 | -16.79566 | -49.13443 | 11592 ft | 322 kts | 301° |
| 2026-05-05 16:51 | -16.78435 | -49.15497 | 11235 ft | 322 kts | 300° |
| 2026-05-05 16:51 | -16.77336 | -49.17525 | 10918 ft | 320 kts | 300° |
| 2026-05-05 16:51 | -16.76248 | -49.19517 | 10597 ft | 320 kts | 300° |
| 2026-05-05 16:52 | -16.75139 | -49.21526 | 10336 ft | 316 kts | 301° |
| 2026-05-05 16:52 | -16.74044 | -49.23491 | 10158 ft | 310 kts | 301° |
| 2026-05-05 16:52 | -16.72974 | -49.25400 | 10089 ft | 300 kts | 301° |
| 2026-05-05 16:52 | -16.71900 | -49.27313 | 9572 ft | 306 kts | 301° |
| 2026-05-05 16:53 | -16.70823 | -49.29229 | 9210 ft | 307 kts | 301° |
| 2026-05-05 16:53 | -16.69748 | -49.31140 | 8927 ft | 304 kts | 301° |
| 2026-05-05 16:53 | -16.68684 | -49.33033 | 8640 ft | 301 kts | 301° |
| 2026-05-05 16:53 | -16.67630 | -49.34907 | 8370 ft | 298 kts | 301° |
| 2026-05-05 16:54 | -16.66585 | -49.36767 | 8117 ft | 296 kts | 301° |
| 2026-05-05 16:54 | -16.65557 | -49.38595 | 7850 ft | 294 kts | 301° |
| 2026-05-05 16:54 | -16.64526 | -49.40425 | 7576 ft | 292 kts | 301° |
| 2026-05-05 16:54 | -16.63500 | -49.42246 | 7324 ft | 290 kts | 301° |
| 2026-05-05 16:55 | -16.62569 | -49.44096 | 7177 ft | 285 kts | 288° |
| 2026-05-05 16:55 | -16.62341 | -49.46086 | 7159 ft | 271 kts | 262° |
| 2026-05-05 16:55 | -16.62891 | -49.47901 | 7137 ft | 257 kts | 238° |
| 2026-05-05 16:55 | -16.63559 | -49.48888 | 7129 ft | 248 kts | 224° |
| 2026-05-05 16:56 | -16.65360 | -49.50287 | 7134 ft | 239 kts | 207° |
| 2026-05-05 16:56 | -16.66809 | -49.51133 | 7117 ft | 239 kts | 206° |
| 2026-05-05 16:56 | -16.67773 | -49.51689 | 7112 ft | 238 kts | 205° |
| 2026-05-05 16:56 | -16.69704 | -49.52808 | 7101 ft | 237 kts | 207° |
| 2026-05-05 16:57 | -16.71162 | -49.53540 | 7091 ft | 235 kts | 191° |
| 2026-05-05 16:57 | -16.72768 | -49.53592 | 7117 ft | 233 kts | 168° |
| 2026-05-05 16:57 | -16.74315 | -49.53085 | 7118 ft | 233 kts | 150° |
| 2026-05-05 16:57 | -16.75588 | -49.52061 | 7103 ft | 231 kts | 129° |
| 2026-05-05 16:58 | -16.76397 | -49.50648 | 7110 ft | 225 kts | 108° |
| 2026-05-05 16:58 | -16.76632 | -49.49581 | 7121 ft | 222 kts | 94° |
| 2026-05-05 16:58 | -16.76510 | -49.48007 | 7125 ft | 222 kts | 75° |
| 2026-05-05 16:58 | -16.75846 | -49.46554 | 7117 ft | 224 kts | 55° |
| 2026-05-05 16:59 | -16.74219 | -49.45149 | 7139 ft | 236 kts | 27° |
| 2026-05-05 16:59 | -16.72609 | -49.44721 | 7175 ft | 243 kts | 7° |
| 2026-05-05 16:59 | -16.71483 | -49.44749 | 7149 ft | 246 kts | 354° |
| 2026-05-05 16:59 | -16.69869 | -49.45334 | 7170 ft | 246 kts | 336° |
| 2026-05-05 17:00 | -16.68238 | -49.45692 | 7153 ft | 238 kts | 13° |
| 2026-05-05 17:00 | -16.66676 | -49.45198 | 7174 ft | 235 kts | 24° |
| 2026-05-05 17:00 | -16.65173 | -49.44512 | 7156 ft | 236 kts | 29° |
| 2026-05-05 17:00 | -16.63710 | -49.43745 | 7176 ft | 235 kts | 31° |
| 2026-05-05 17:01 | -16.62284 | -49.42919 | 7176 ft | 234 kts | 40° |
| 2026-05-05 17:01 | -16.61370 | -49.41578 | 7185 ft | 228 kts | 75° |
| 2026-05-05 17:01 | -16.61270 | -49.39960 | 7174 ft | 224 kts | 101° |
| 2026-05-05 17:01 | -16.61848 | -49.38464 | 7166 ft | 226 kts | 125° |
| 2026-05-05 17:02 | -16.63026 | -49.37385 | 7165 ft | 229 kts | 152° |
| 2026-05-05 17:02 | -16.64570 | -49.36991 | 7177 ft | 232 kts | 178° |
| 2026-05-05 17:02 | -16.66154 | -49.37343 | 7186 ft | 238 kts | 203° |
| 2026-05-05 17:02 | -16.67630 | -49.38183 | 7166 ft | 244 kts | 206° |
| 2026-05-05 17:03 | -16.69106 | -49.39061 | 7171 ft | 244 kts | 206° |
| 2026-05-05 17:03 | -16.70587 | -49.39939 | 7166 ft | 244 kts | 206° |
| 2026-05-05 17:03 | -16.72057 | -49.40820 | 7149 ft | 244 kts | 211° |
| 2026-05-05 17:03 | -16.73208 | -49.42117 | 7138 ft | 249 kts | 243° |
| 2026-05-05 17:04 | -16.73555 | -49.43866 | 7145 ft | 249 kts | 274° |
| 2026-05-05 17:04 | -16.73045 | -49.45544 | 7147 ft | 246 kts | 305° |
| 2026-05-05 17:04 | -16.71823 | -49.46738 | 7142 ft | 242 kts | 335° |
| 2026-05-05 17:04 | -16.70210 | -49.47154 | 7132 ft | 240 kts | 5° |
| 2026-05-05 17:05 | -16.68610 | -49.46770 | 7147 ft | 238 kts | 27° |
| 2026-05-05 17:05 | -16.67142 | -49.45958 | 7158 ft | 239 kts | 33° |
| 2026-05-05 17:05 | -16.65694 | -49.45083 | 7158 ft | 242 kts | 33° |
| 2026-05-05 17:05 | -16.64238 | -49.44207 | 7147 ft | 239 kts | 33° |
| 2026-05-05 17:06 | -16.62800 | -49.43344 | 7151 ft | 236 kts | 35° |
| 2026-05-05 17:06 | -16.61686 | -49.42175 | 7154 ft | 225 kts | 65° |
| 2026-05-05 17:06 | -16.61271 | -49.40629 | 7148 ft | 222 kts | 89° |
| 2026-05-05 17:06 | -16.61533 | -49.39049 | 7181 ft | 226 kts | 113° |
| 2026-05-05 17:07 | -16.62469 | -49.37729 | 7177 ft | 230 kts | 139° |
| 2026-05-05 17:07 | -16.63890 | -49.37009 | 7171 ft | 233 kts | 167° |
| 2026-05-05 17:07 | -16.65515 | -49.37049 | 7170 ft | 238 kts | 192° |
| 2026-05-05 17:07 | -16.67029 | -49.37766 | 7189 ft | 242 kts | 207° |
| 2026-05-05 17:08 | -16.68495 | -49.38634 | 7181 ft | 243 kts | 206° |
| 2026-05-05 17:08 | -16.69830 | -49.39729 | 7141 ft | 249 kts | 234° |
| 2026-05-05 17:08 | -16.70320 | -49.41429 | 7174 ft | 245 kts | 271° |
| 2026-05-05 17:08 | -16.69916 | -49.43085 | 7161 ft | 230 kts | 298° |
| 2026-05-05 17:09 | -16.68944 | -49.44314 | 7142 ft | 213 kts | 325° |
| 2026-05-05 17:09 | -16.67672 | -49.44945 | 7127 ft | 195 kts | 351° |
| 2026-05-05 17:09 | -16.66352 | -49.45034 | 7151 ft | 188 kts | 11° |
| 2026-05-05 17:09 | -16.65119 | -49.44685 | 7037 ft | 181 kts | 30° |
| 2026-05-05 17:10 | -16.64016 | -49.44074 | 6757 ft | 182 kts | 33° |
| 2026-05-05 17:10 | -16.62926 | -49.43428 | 6519 ft | 180 kts | 34° |
| 2026-05-05 17:10 | -16.61840 | -49.42765 | 6263 ft | 180 kts | 34° |
| 2026-05-05 17:10 | -16.60773 | -49.42112 | 6152 ft | 176 kts | 34° |
| 2026-05-05 17:11 | -16.59723 | -49.41472 | 6063 ft | 174 kts | 34° |
| 2026-05-05 17:11 | -16.58671 | -49.40831 | 6005 ft | 177 kts | 34° |
| 2026-05-05 17:11 | -16.57594 | -49.40177 | 5926 ft | 179 kts | 34° |
| 2026-05-05 17:11 | -16.56521 | -49.39527 | 5862 ft | 178 kts | 34° |
| 2026-05-05 17:12 | -16.55455 | -49.38843 | 5654 ft | 180 kts | 44° |
| 2026-05-05 17:12 | -16.54966 | -49.37767 | 5600 ft | 165 kts | 94° |
| 2026-05-05 17:12 | -16.55333 | -49.36626 | 5437 ft | 170 kts | 112° |
| 2026-05-05 17:12 | -16.55809 | -49.35497 | 5228 ft | 173 kts | 112° |
| 2026-05-05 17:13 | -16.56335 | -49.34369 | 5011 ft | 173 kts | 117° |
| 2026-05-05 17:13 | -16.56918 | -49.33301 | 4778 ft | 165 kts | 119° |
| 2026-05-05 17:13 | -16.57479 | -49.32302 | 4554 ft | 154 kts | 118° |
| 2026-05-05 17:13 | -16.58007 | -49.31356 | 4377 ft | 149 kts | 118° |
| 2026-05-05 17:14 | -16.58513 | -49.30457 | 4207 ft | 143 kts | 119° |
| 2026-05-05 17:14 | -16.59005 | -49.29580 | 4004 ft | 138 kts | 118° |
| 2026-05-05 17:14 | -16.59496 | -49.28704 | 3828 ft | 142 kts | 119° |
| 2026-05-05 17:14 | -16.59991 | -49.27821 | 3608 ft | 138 kts | 118° |
| 2026-05-05 17:15 | -16.60468 | -49.26972 | 3443 ft | 135 kts | 118° |
| 2026-05-05 17:15 | -16.60953 | -49.26105 | 3224 ft | 142 kts | 119° |
| 2026-05-05 17:15 | -16.61448 | -49.25223 | 3025 ft | 141 kts | 119° |
| 2026-05-05 17:15 | -16.61937 | -49.24350 | 2807 ft | 136 kts | 118° |
| 2026-05-05 17:16 | -16.62414 | -49.23487 | 2617 ft | 137 kts | 118° |
| 2026-05-05 17:16 | -16.62895 | -49.22652 | 2449 ft | 128 kts | 117° |
| 2026-05-05 17:16 | -16.63289 | -49.21905 | 2523 ft | 125 kts | 117° |
| 2026-05-05 17:16 | -16.63754 | -49.21107 | 2941 ft | 124 kts | 122° |
| 2026-05-05 17:17 | -16.64305 | -49.20246 | 3011 ft | 166 kts | 122° |
| 2026-05-05 17:17 | -16.64980 | -49.19170 | 3071 ft | 194 kts | 121° |
| 2026-05-05 17:17 | -16.65690 | -49.17964 | 3647 ft | 184 kts | 120° |
| 2026-05-05 17:17 | -16.66369 | -49.16771 | 4235 ft | 205 kts | 122° |
| 2026-05-05 17:18 | -16.67450 | -49.15738 | 4648 ft | 219 kts | 156° |
| 2026-05-05 17:18 | -16.69004 | -49.15502 | 5186 ft | 243 kts | 186° |
| 2026-05-05 17:18 | -16.70613 | -49.16199 | 5786 ft | 261 kts | 216° |
| 2026-05-05 17:18 | -16.71742 | -49.17689 | 6537 ft | 268 kts | 244° |
| 2026-05-05 17:19 | -16.72125 | -49.19595 | 6917 ft | 273 kts | 272° |
| 2026-05-05 17:19 | -16.71736 | -49.21518 | 6986 ft | 269 kts | 289° |
| 2026-05-05 17:19 | -16.71111 | -49.23356 | 7002 ft | 270 kts | 291° |
| 2026-05-05 17:19 | -16.70456 | -49.25199 | 7005 ft | 271 kts | 291° |
| 2026-05-05 17:20 | -16.69616 | -49.26926 | 7006 ft | 272 kts | 304° |
| 2026-05-05 17:20 | -16.68736 | -49.28700 | 7014 ft | 283 kts | 292° |
| 2026-05-05 17:20 | -16.68008 | -49.30701 | 7009 ft | 297 kts | 292° |
| 2026-05-05 17:20 | -16.67236 | -49.32715 | 7004 ft | 299 kts | 293° |
| 2026-05-05 17:21 | -16.66450 | -49.34676 | 6991 ft | 295 kts | 294° |
| 2026-05-05 17:21 | -16.65648 | -49.36634 | 6982 ft | 291 kts | 294° |
| 2026-05-05 17:21 | -16.64851 | -49.38568 | 6975 ft | 288 kts | 294° |
| 2026-05-05 17:22 | -16.62189 | -49.41388 | 6966 ft | 279 kts | 350° |
| 2026-05-05 17:22 | -16.60282 | -49.41450 | 6678 ft | 275 kts | 9° |
| 2026-05-05 17:22 | -16.58500 | -49.40871 | 6296 ft | 265 kts | 32° |
| 2026-05-05 17:22 | -16.56955 | -49.39880 | 5942 ft | 258 kts | 42° |
| 2026-05-05 17:23 | -16.55928 | -49.38395 | 5724 ft | 249 kts | 71° |
| 2026-05-05 17:23 | -16.55723 | -49.36675 | 5337 ft | 235 kts | 101° |
| 2026-05-05 17:23 | -16.56133 | -49.35141 | 5083 ft | 220 kts | 110° |
| 2026-05-05 17:23 | -16.56727 | -49.33709 | 4810 ft | 211 kts | 115° |
| 2026-05-05 17:24 | -16.57404 | -49.32422 | 4532 ft | 197 kts | 119° |
| 2026-05-05 17:24 | -16.58065 | -49.31252 | 4318 ft | 176 kts | 119° |
| 2026-05-05 17:24 | -16.58649 | -49.30215 | 4092 ft | 156 kts | 118° |
| 2026-05-05 17:24 | -16.59171 | -49.29285 | 3898 ft | 141 kts | 118° |
| 2026-05-05 17:25 | -16.59650 | -49.28430 | 3719 ft | 135 kts | 117° |
| 2026-05-05 17:25 | -16.59960 | -49.27870 | 3570 ft | 134 kts | 117° |
| 2026-05-05 17:25 | -16.60593 | -49.26744 | 3361 ft | 141 kts | 118° |
| 2026-05-05 17:25 | -16.61102 | -49.25834 | 3134 ft | 147 kts | 120° |
| 2026-05-05 17:26 | -16.61615 | -49.24922 | 2947 ft | 142 kts | 118° |
| 2026-05-05 17:26 | -16.62104 | -49.24052 | 2779 ft | 137 kts | 116° |
| 2026-05-05 17:26 | -16.62575 | -49.23213 | 2529 ft | 132 kts | 118° |
| 2026-05-05 17:26 | -16.63008 | -49.22440 | 2430 ft | 112 kts | 121° |
| 2026-05-05 17:27 | -16.63307 | -49.21914 | 2430 ft | 56 kts | 120° |
| 2026-05-05 17:27 | -16.63394 | -49.21760 | 2433 ft | 19 kts | 120° |
| 2026-05-05 17:27 | -16.63448 | -49.21635 | 2437 ft | 19 kts | 104° |
| 2026-05-05 17:27 | -16.63470 | -49.21511 | 2437 ft | 15 kts | 94° |
| 2026-05-05 17:28 | -16.63456 | -49.21410 | 2434 ft | 14 kts | 50° |
| 2026-05-05 17:28 | -16.63391 | -49.21430 | 2434 ft | 11 kts | 305° |
| 2026-05-05 17:28 | -16.63354 | -49.21495 | 2435 ft | 10 kts | 299° |
| 2026-05-05 17:28 | -16.63319 | -49.21560 | 2433 ft | 11 kts | 300° |
| 2026-05-05 17:29 | -16.63276 | -49.21634 | 2435 ft | 14 kts | 303° |
| 2026-05-05 17:29 | -16.63220 | -49.21731 | 2433 ft | 17 kts | 300° |
| 2026-05-05 17:29 | -16.63153 | -49.21852 | 2432 ft | 21 kts | 300° |
| 2026-05-05 17:29 | -16.63079 | -49.21984 | 2431 ft | 21 kts | 300° |
| 2026-05-05 17:30 | -16.63006 | -49.22017 | 2430 ft | 12 kts | 36° |
| 2026-05-05 17:30 | -16.62973 | -49.21931 | 2428 ft | 14 kts | 77° |
| 2026-05-05 17:30 | -16.62949 | -49.21819 | 2433 ft | 17 kts | 77° |
| 2026-05-05 17:30 | -16.62924 | -49.21694 | 2432 ft | 17 kts | 79° |
| 2026-05-05 17:31 | -16.62938 | -49.21634 | 2433 ft | 0 kts | 142° |
| 2026-05-05 17:31 | -16.62942 | -49.21632 | 2430 ft | 2 kts | 145° |
| 2026-05-05 17:31 | -16.62983 | -49.21610 | 2432 ft | 11 kts | 155° |
| 2026-05-05 17:32 | -16.63038 | -49.21562 | 2433 ft | 7 kts | 77° |
| 2026-05-05 17:32 | -16.63016 | -49.21526 | 2433 ft | 5 kts | 56° |
| 2026-05-05 17:32 | -16.63009 | -49.21516 | 2431 ft | 0 kts | 56° |